createdAt,value
2023-08-02T00:01:04.321Z,89.37
2023-08-02T00:05:58.353Z,89.21
2023-08-02T00:10:50.176Z,88.71
2023-08-02T00:15:42.740Z,89.95
2023-08-02T00:20:34.625Z,89.83
2023-08-02T00:25:26.369Z,90.44
2023-08-02T00:30:18.031Z,90.31
2023-08-02T00:35:09.905Z,91.74
2023-08-02T00:40:01.694Z,92.93
2023-08-02T00:44:53.383Z,94.81
2023-08-02T00:49:46.919Z,95.88
2023-08-02T00:54:39.661Z,97.17
2023-08-02T00:59:31.707Z,97.21
2023-08-02T01:04:23.904Z,99.25
2023-08-02T01:09:41.259Z,99.18
2023-08-02T01:14:43.239Z,100.00
2023-08-02T01:19:38.407Z,100.00
2023-08-02T01:24:35.458Z,100.00
2023-08-02T01:29:28.775Z,100.00
2023-08-02T01:34:22.722Z,100.00
2023-08-02T01:39:15.832Z,100.00
2023-08-02T01:44:07.573Z,100.00
2023-08-02T01:48:59.308Z,100.00
2023-08-02T01:53:51.012Z,100.00
2023-08-02T01:58:42.765Z,100.00
2023-08-02T02:03:34.718Z,100.00
2023-08-02T02:08:26.772Z,100.00
2023-08-02T02:13:19.572Z,100.00
2023-08-02T02:18:11.354Z,100.00
2023-08-02T02:23:03.165Z,100.00
2023-08-02T02:27:54.904Z,100.00
2023-08-02T02:32:46.647Z,100.00
2023-08-02T02:37:38.345Z,100.00
2023-08-02T02:42:30.024Z,100.00
2023-08-02T02:47:21.658Z,100.00
2023-08-02T02:52:13.387Z,100.00
2023-08-02T02:57:05.268Z,100.00
2023-08-02T03:01:56.998Z,100.00
2023-08-02T03:06:48.734Z,100.00
2023-08-02T03:11:40.469Z,100.00
2023-08-02T03:16:32.210Z,100.00
2023-08-02T03:21:23.894Z,100.00
2023-08-02T03:26:15.523Z,100.00
2023-08-02T03:31:07.678Z,100.00
2023-08-02T03:35:59.709Z,100.00
2023-08-02T03:40:52.173Z,100.00
2023-08-02T03:45:43.864Z,100.00
2023-08-02T03:50:35.792Z,100.00
2023-08-02T03:55:27.588Z,100.00
2023-08-02T04:00:19.324Z,100.00
2023-08-02T04:05:11.822Z,100.00
2023-08-02T04:10:04.209Z,100.00
2023-08-02T04:14:56.245Z,100.00
2023-08-02T04:19:47.995Z,100.00
2023-08-02T04:24:39.659Z,100.00
2023-08-02T04:29:31.334Z,100.00
2023-08-02T04:34:23.042Z,100.00
2023-08-02T04:39:16.537Z,100.00
2023-08-02T04:44:08.297Z,100.00
2023-08-02T04:48:59.983Z,100.00
2023-08-02T04:53:51.760Z,100.00
2023-08-02T04:58:43.716Z,100.00
2023-08-02T05:03:36.411Z,100.00
2023-08-02T05:08:31.402Z,100.00
2023-08-02T05:13:27.175Z,100.00
2023-08-02T05:18:19.158Z,100.00
2023-08-02T05:23:10.932Z,100.00
2023-08-02T05:28:03.178Z,100.00
2023-08-02T05:32:55.690Z,100.00
2023-08-02T05:37:47.518Z,100.00
2023-08-02T05:42:39.387Z,100.00
2023-08-02T05:47:31.763Z,100.00
2023-08-02T05:52:23.698Z,100.00
2023-08-02T05:57:15.522Z,100.00
2023-08-02T06:02:08.458Z,100.00
2023-08-02T06:07:00.147Z,100.00
2023-08-02T06:11:51.795Z,100.00
2023-08-02T06:16:43.465Z,100.00
2023-08-02T06:21:35.719Z,100.00
2023-08-02T06:26:28.300Z,100.00
2023-08-02T06:31:19.949Z,100.00
2023-08-02T06:36:11.897Z,100.00
2023-08-02T06:41:04.322Z,100.00
2023-08-02T06:45:56.110Z,100.00
2023-08-02T06:50:47.902Z,100.00
2023-08-02T06:55:39.815Z,100.00
2023-08-02T07:00:31.779Z,100.00
2023-08-02T07:05:25.238Z,100.00
2023-08-02T07:10:17.847Z,100.00
2023-08-02T07:15:10.052Z,100.00
2023-08-02T07:20:01.746Z,100.00
2023-08-02T07:24:53.365Z,100.00
2023-08-02T07:29:50.295Z,100.00
2023-08-02T07:34:42.226Z,100.00
2023-08-02T07:39:34.732Z,100.00
2023-08-02T07:44:26.936Z,100.00
2023-08-02T07:49:18.613Z,100.00
2023-08-02T07:54:10.339Z,100.00
2023-08-02T07:59:04.178Z,100.00
2023-08-02T08:03:56.420Z,100.00
2023-08-02T08:08:52.259Z,100.00
2023-08-02T08:13:43.912Z,100.00
2023-08-02T08:18:35.798Z,97.47
2023-08-02T08:23:27.726Z,98.78
2023-08-02T08:28:19.368Z,97.58
2023-08-02T08:33:11.639Z,93.75
2023-08-02T08:38:04.084Z,94.77
2023-08-02T08:42:57.012Z,92.12
2023-08-02T08:47:50.028Z,92.22
2023-08-02T08:52:45.413Z,92.56
2023-08-02T08:57:39.300Z,90.65
2023-08-02T09:02:33.324Z,88.33
2023-08-02T09:07:25.029Z,88.48
2023-08-02T09:12:16.720Z,87.40
2023-08-02T09:17:08.377Z,84.20
2023-08-02T09:22:09.011Z,81.77
2023-08-02T09:27:00.691Z,75.80
2023-08-02T09:31:55.420Z,75.34
2023-08-02T09:36:47.189Z,76.38
2023-08-02T09:41:57.805Z,76.38
2023-08-02T09:46:50.562Z,77.87
2023-08-02T09:51:44.266Z,78.34
2023-08-02T09:56:37.528Z,76.77
2023-08-02T10:01:30.839Z,76.22
2023-08-02T10:06:28.538Z,70.86
2023-08-02T10:11:23.131Z,71.66
2023-08-02T10:16:15.436Z,65.53
2023-08-02T10:21:08.262Z,68.40
2023-08-02T10:26:00.889Z,65.51
2023-08-02T10:30:52.708Z,61.62
2023-08-02T10:36:04.190Z,59.97
2023-08-02T10:41:12.851Z,60.05
2023-08-02T10:46:26.656Z,60.11
2023-08-02T10:51:38.929Z,57.53
2023-08-02T10:56:30.608Z,58.59
2023-08-02T11:01:22.481Z,58.32
2023-08-02T11:06:33.624Z,56.70
2023-08-02T11:11:32.124Z,56.09
2023-08-02T11:16:24.424Z,51.92
2023-08-02T11:21:16.419Z,49.92
2023-08-02T11:26:14.291Z,52.33
2023-08-02T11:31:06.930Z,50.48
2023-08-02T11:35:58.763Z,51.89
2023-08-02T11:40:50.421Z,52.19
2023-08-02T11:45:42.088Z,51.99
2023-08-02T11:50:34.637Z,52.52
2023-08-02T11:55:26.442Z,53.47
2023-08-02T12:00:18.397Z,54.09
2023-08-02T12:05:22.335Z,53.17
2023-08-02T12:10:31.903Z,54.93
2023-08-02T12:15:23.883Z,52.63
2023-08-02T12:20:35.520Z,53.50
2023-08-02T12:25:27.482Z,50.83
2023-08-02T12:30:19.172Z,51.12
2023-08-02T12:35:13.279Z,51.43
2023-08-02T12:40:06.206Z,52.96
2023-08-02T12:45:07.941Z,53.48
2023-08-02T12:50:07.972Z,51.09
2023-08-02T12:55:01.023Z,50.38
2023-08-02T12:59:52.745Z,52.60
2023-08-02T13:04:44.609Z,52.11
2023-08-02T13:09:39.696Z,53.59
2023-08-02T13:14:31.325Z,53.58
2023-08-02T13:19:22.961Z,53.72
2023-08-02T13:24:14.654Z,55.74
2023-08-02T13:29:06.359Z,57.19
2023-08-02T13:33:58.048Z,59.45
2023-08-02T13:38:49.687Z,59.47
2023-08-02T13:43:41.360Z,60.03
2023-08-02T13:48:33.020Z,59.65
2023-08-02T13:53:24.845Z,62.08
2023-08-02T13:58:16.820Z,61.70
2023-08-02T14:03:08.675Z,61.14
2023-08-02T14:08:00.555Z,59.07
2023-08-02T14:12:52.268Z,58.81
2023-08-02T14:17:44.014Z,57.77
2023-08-02T14:22:35.791Z,59.03
2023-08-02T14:27:27.514Z,58.57
2023-08-02T14:32:19.193Z,59.96
2023-08-02T14:37:10.900Z,60.33
2023-08-02T14:42:04.036Z,60.27
2023-08-02T14:46:55.718Z,59.85
2023-08-02T14:51:47.445Z,62.09
2023-08-02T14:56:39.136Z,63.91
2023-08-02T15:01:30.843Z,64.56
2023-08-02T15:06:26.230Z,65.57
2023-08-02T15:11:18.018Z,65.00
2023-08-02T15:16:09.629Z,66.10
2023-08-02T15:21:01.432Z,65.05
2023-08-02T15:25:53.106Z,65.29
2023-08-02T15:30:44.988Z,67.44
2023-08-02T15:35:36.848Z,63.72
2023-08-02T15:40:28.675Z,63.97
2023-08-02T15:45:20.595Z,65.19
2023-08-02T15:50:12.815Z,66.29
2023-08-02T15:55:05.193Z,64.34
2023-08-02T15:59:56.895Z,64.01
2023-08-02T16:04:48.655Z,66.08
2023-08-02T16:09:40.350Z,67.85
2023-08-02T16:14:32.121Z,69.41
2023-08-02T16:19:23.732Z,72.17
2023-08-02T16:24:16.976Z,72.15
2023-08-02T16:29:10.470Z,73.71
2023-08-02T16:34:02.169Z,74.37
2023-08-02T16:38:53.857Z,75.73
2023-08-02T16:43:45.506Z,75.67
2023-08-02T16:48:37.285Z,75.20
2023-08-02T16:53:29.559Z,75.79
2023-08-02T16:58:22.989Z,75.42
2023-08-02T17:03:16.488Z,75.24
2023-08-02T17:08:09.774Z,75.83
2023-08-02T17:13:01.719Z,75.39
2023-08-02T17:17:53.431Z,74.63
2023-08-02T17:22:45.118Z,75.40
2023-08-02T17:27:36.842Z,75.59
2023-08-02T17:32:28.600Z,76.83
2023-08-02T17:37:20.246Z,77.58
2023-08-02T17:42:12.031Z,78.09
2023-08-02T17:47:03.984Z,77.83
2023-08-02T17:51:55.596Z,78.02
2023-08-02T17:56:47.270Z,77.97
2023-08-02T18:01:38.968Z,79.46
2023-08-02T18:06:30.847Z,81.10
2023-08-02T18:11:23.134Z,83.53
2023-08-02T18:16:14.853Z,85.98
2023-08-02T18:21:06.709Z,87.97
2023-08-02T18:25:58.823Z,89.49
2023-08-02T18:31:02.688Z,90.40
2023-08-02T18:36:05.849Z,91.73
2023-08-02T18:40:57.513Z,92.68
2023-08-02T18:45:49.263Z,92.98
2023-08-02T18:50:41.055Z,94.45
2023-08-02T18:55:37.262Z,95.26
2023-08-02T19:00:29.187Z,95.66
2023-08-02T19:05:21.038Z,97.04
2023-08-02T19:10:12.897Z,96.60
2023-08-02T19:15:06.028Z,96.99
2023-08-02T19:19:57.889Z,97.46
2023-08-02T19:24:49.629Z,97.86
2023-08-02T19:29:41.581Z,98.13
2023-08-02T19:34:36.979Z,98.17
2023-08-02T19:39:41.070Z,98.47
2023-08-02T19:44:39.211Z,99.14
2023-08-02T19:49:31.671Z,98.88
2023-08-02T19:54:24.714Z,99.95
2023-08-02T19:59:16.323Z,100.00
2023-08-02T20:04:11.978Z,100.00
2023-08-02T20:09:05.886Z,100.00
2023-08-02T20:13:58.920Z,100.00
2023-08-02T20:18:52.012Z,100.00
2023-08-02T20:23:44.040Z,100.00
2023-08-02T20:28:47.440Z,100.00
2023-08-02T20:33:39.135Z,100.00
2023-08-02T20:38:31.521Z,100.00
2023-08-02T20:43:23.248Z,100.00
2023-08-02T20:48:16.254Z,100.00
2023-08-02T20:53:13.024Z,100.00
2023-08-02T20:58:09.879Z,100.00
2023-08-02T21:03:02.762Z,99.96
2023-08-02T21:07:57.484Z,99.76
2023-08-02T21:12:49.174Z,99.60
2023-08-02T21:17:44.185Z,99.72
2023-08-02T21:22:35.912Z,99.10
2023-08-02T21:27:28.516Z,99.36
2023-08-02T21:32:26.130Z,98.92
2023-08-02T21:37:24.292Z,99.68
2023-08-02T21:42:22.690Z,99.32
2023-08-02T21:47:15.763Z,99.94
2023-08-02T21:52:13.231Z,99.06
2023-08-02T21:57:05.411Z,100.00
2023-08-02T22:01:57.109Z,100.00
2023-08-02T22:06:52.254Z,100.00
2023-08-02T22:11:45.827Z,100.00
2023-08-02T22:16:38.715Z,100.00
2023-08-02T22:21:30.364Z,100.00
2023-08-02T22:26:22.130Z,100.00
2023-08-02T22:31:13.868Z,100.00
2023-08-02T22:36:05.723Z,100.00
2023-08-02T22:40:57.648Z,100.00
2023-08-02T22:45:49.321Z,100.00
2023-08-02T22:55:36.984Z,100.00
2023-08-02T23:00:31.663Z,100.00
2023-08-02T23:05:23.352Z,100.00
2023-08-02T23:10:40.985Z,100.00
2023-08-02T23:15:32.852Z,100.00
2023-08-02T23:20:47.382Z,100.00
2023-08-02T23:25:39.116Z,100.00
2023-08-02T23:30:33.818Z,100.00
2023-08-02T23:35:25.501Z,100.00
2023-08-02T23:40:17.131Z,100.00
2023-08-02T23:45:09.165Z,100.00
2023-08-02T23:50:00.886Z,100.00
2023-08-02T23:54:52.570Z,100.00
2023-08-02T23:59:44.292Z,100.00
